Time;durP1;ratioP1;P1;durP2;ratioP2;P2;SDS_P1;SDS_P2;PMS_P1;PMS_P2;Temp;Humidity;BMP_temperature;BMP_pressure;BME280_temperature;BME280_humidity;BME280_pressure;Samples;Min_cycle;Max_cycle;Signal;HPM_P1;HPM_P2
2024/03/20 00:00:11;;;;;;;9.13;6.43;;;26.50;99.90;;;;;;5037380;28;20119;-54
2024/03/20 00:02:37;;;;;;;9.95;6.28;;;26.50;99.90;;;;;;5053889;28;20087;-53
2024/03/20 00:05:03;;;;;;;9.05;6.25;;;26.50;99.90;;;;;;5055238;28;20037;-53
2024/03/20 00:07:29;;;;;;;13.55;6.20;;;26.40;99.90;;;;;;5054574;28;20025;-53
2024/03/20 00:09:55;;;;;;;9.77;6.80;;;26.40;99.90;;;;;;5036696;28;20040;-53
2024/03/20 00:12:22;;;;;;;9.85;6.28;;;26.40;99.90;;;;;;5054235;28;20717;-52
2024/03/20 00:14:50;;;;;;;7.22;5.63;;;26.40;99.90;;;;;;5054561;28;20067;-54
2024/03/20 00:17:16;;;;;;;8.27;5.78;;;26.40;99.90;;;;;;5054317;28;20096;-51
2024/03/20 00:19:42;;;;;;;8.32;5.72;;;26.40;99.90;;;;;;5054393;28;20064;-52
2024/03/20 00:22:08;;;;;;;11.23;5.50;;;26.40;99.90;;;;;;5037066;28;20524;-53
2024/03/20 00:24:34;;;;;;;11.48;5.47;;;26.40;99.90;;;;;;5054250;28;20055;-52
2024/03/20 00:27:00;;;;;;;10.20;5.97;;;26.40;99.90;;;;;;5053653;28;20041;-51
2024/03/20 00:29:27;;;;;;;8.43;6.32;;;26.40;99.90;;;;;;5054458;28;20111;-52
2024/03/20 00:31:55;;;;;;;9.73;6.63;;;26.40;99.90;;;;;;5054377;28;20052;-52
2024/03/20 00:34:21;;;;;;;7.78;5.43;;;26.40;99.90;;;;;;5036297;28;21250;-53
2024/03/20 00:36:47;;;;;;;8.70;6.07;;;26.40;99.90;;;;;;5054341;28;20021;-52
2024/03/20 00:39:13;;;;;;;7.90;5.90;;;26.40;99.90;;;;;;5053249;28;20411;-53
2024/03/20 00:41:39;;;;;;;6.70;5.00;;;26.30;99.90;;;;;;5054458;28;20120;-53
2024/03/20 00:44:05;;;;;;;9.25;5.50;;;26.30;99.90;;;;;;5053973;28;20029;-54
2024/03/20 00:46:31;;;;;;;6.90;5.22;;;26.30;99.90;;;;;;5053591;28;20147;-54
2024/03/20 00:48:56;;;;;;;7.50;4.93;;;26.30;99.90;;;;;;5041763;28;20045;-53
2024/03/20 00:51:22;;;;;;;11.07;6.15;;;26.30;99.90;;;;;;5053037;28;20017;-53
2024/03/20 00:53:48;;;;;;;6.75;5.13;;;26.30;99.90;;;;;;5043148;28;20545;-53
2024/03/20 00:56:14;;;;;;;6.70;5.15;;;26.30;99.90;;;;;;5054141;28;20021;-53
2024/03/20 00:58:40;;;;;;;6.85;5.13;;;26.30;99.90;;;;;;5053492;28;20041;-53
2024/03/20 01:01:06;;;;;;;9.35;5.15;;;26.30;99.90;;;;;;5035308;28;20094;-53
2024/03/20 01:03:32;;;;;;;7.70;4.63;;;26.30;99.90;;;;;;5035803;28;20029;-53
2024/03/20 01:05:58;;;;;;;7.18;5.32;;;26.30;99.90;;;;;;5053298;28;20027;-53
2024/03/20 01:08:24;;;;;;;6.50;5.00;;;26.30;99.90;;;;;;5053508;28;20428;-54
2024/03/20 01:10:50;;;;;;;9.90;4.95;;;26.30;99.90;;;;;;5053508;28;20036;-56
2024/03/20 01:13:17;;;;;;;7.15;5.40;;;26.20;99.90;;;;;;5053822;28;20077;-55
2024/03/20 01:15:43;;;;;;;9.43;5.10;;;26.20;99.90;;;;;;5035647;28;20021;-54
2024/03/20 01:18:09;;;;;;;7.72;5.07;;;26.20;99.90;;;;;;5053716;28;20044;-54
2024/03/20 01:20:35;;;;;;;6.72;4.78;;;26.20;99.90;;;;;;5053340;28;20096;-55
2024/03/20 01:23:01;;;;;;;7.20;5.28;;;26.20;99.90;;;;;;5052411;28;20104;-54
2024/03/20 01:25:27;;;;;;;6.10;4.45;;;26.20;99.90;;;;;;5053499;28;20025;-54
2024/03/20 01:27:52;;;;;;;7.53;5.00;;;26.20;99.90;;;;;;5051922;28;20086;-54
2024/03/20 01:30:18;;;;;;;8.88;5.38;;;26.20;99.90;;;;;;5053034;28;20029;-56
2024/03/20 01:32:44;;;;;;;6.57;5.15;;;26.20;99.90;;;;;;5052989;28;20067;-54
2024/03/20 01:35:10;;;;;;;6.22;4.82;;;26.20;99.90;;;;;;5026469;28;20041;-54
2024/03/20 01:37:36;;;;;;;6.70;4.47;;;26.10;99.90;;;;;;5049067;28;20025;-53
2024/03/20 01:40:02;;;;;;;8.32;5.43;;;26.20;99.90;;;;;;5052828;28;20078;-54
2024/03/20 01:42:28;;;;;;;8.10;4.85;;;26.10;99.90;;;;;;5052927;28;20090;-55
2024/03/20 01:45:26;;;;;;;7.90;4.70;;;26.10;99.90;;;;;;5052034;28;20087;-55
2024/03/20 01:47:52;;;;;;;5.65;4.28;;;26.10;99.90;;;;;;4990334;28;20086;-52
2024/03/20 01:50:18;;;;;;;10.18;4.45;;;26.10;99.90;;;;;;5048864;28;20032;-53
2024/03/20 01:52:55;;;;;;;7.07;4.63;;;26.10;99.90;;;;;;5051430;28;20107;-52
2024/03/20 01:55:24;;;;;;;6.75;4.68;;;26.10;99.90;;;;;;5052968;28;20051;-52
2024/03/20 01:57:52;;;;;;;7.53;4.72;;;26.10;99.90;;;;;;5034894;28;20021;-52
2024/03/20 02:02:55;;;;;;;7.20;4.28;;;26.10;99.90;;;;;;5051468;28;20052;-42
2024/03/20 02:05:22;;;;;;;5.78;4.40;;;26.00;99.90;;;;;;5052572;28;20371;-43
2024/03/20 02:07:51;;;;;;;5.43;4.50;;;26.00;99.90;;;;;;5052516;28;20159;-43
2024/03/20 02:10:17;;;;;;;7.22;4.30;;;26.00;99.90;;;;;;5052445;28;20039;-43
2024/03/20 02:12:42;;;;;;;5.40;4.35;;;26.00;99.90;;;;;;5051685;28;20029;-43
2024/03/20 02:15:09;;;;;;;6.10;4.47;;;26.00;99.90;;;;;;5051618;28;20074;-42
2024/03/20 02:17:39;;;;;;;7.53;5.30;;;26.00;99.90;;;;;;5032571;28;20034;-44
2024/03/20 02:20:06;;;;;;;6.20;4.53;;;26.00;99.90;;;;;;5048006;28;20033;-43
2024/03/20 02:22:40;;;;;;;7.00;4.50;;;26.00;99.90;;;;;;5052384;28;20053;-43
2024/03/20 02:25:06;;;;;;;5.68;4.38;;;25.90;99.90;;;;;;5052124;28;20052;-43
2024/03/20 02:27:31;;;;;;;5.47;4.45;;;25.90;99.90;;;;;;5052283;28;20090;-44
2024/03/20 02:29:57;;;;;;;5.13;4.00;;;25.90;99.90;;;;;;5038978;28;20025;-44
2024/03/20 02:32:23;;;;;;;6.82;5.00;;;25.90;99.90;;;;;;5034641;28;20028;-42
2024/03/20 02:34:49;;;;;;;6.50;4.18;;;25.90;99.90;;;;;;5052090;28;20036;-43
2024/03/20 02:37:14;;;;;;;8.65;4.75;;;25.90;99.90;;;;;;5052088;28;20045;-43
2024/03/20 02:39:40;;;;;;;5.80;4.43;;;25.90;99.90;;;;;;5052097;28;20496;-43
2024/03/20 02:42:06;;;;;;;5.55;4.20;;;25.90;99.90;;;;;;5045376;28;20029;-43
2024/03/20 02:44:32;;;;;;;7.30;4.28;;;25.90;99.90;;;;;;5041955;28;20028;-43
2024/03/20 02:46:58;;;;;;;5.90;4.10;;;25.80;99.90;;;;;;5043781;28;20567;-43
2024/03/20 02:49:24;;;;;;;6.95;4.00;;;25.80;99.90;;;;;;5052063;28;20381;-43
2024/03/20 02:51:49;;;;;;;6.60;4.47;;;25.80;99.90;;;;;;5052101;28;20021;-43
2024/03/20 02:54:15;;;;;;;6.47;4.32;;;25.80;99.90;;;;;;5051717;28;20032;-44
2024/03/20 02:56:41;;;;;;;4.30;3.75;;;25.80;99.90;;;;;;5052089;28;20470;-42
2024/03/20 02:59:07;;;;;;;8.45;4.63;;;25.80;99.90;;;;;;5051912;28;20044;-43
2024/03/20 03:01:32;;;;;;;5.82;4.20;;;25.80;99.90;;;;;;5052197;28;20037;-43
2024/03/20 03:03:58;;;;;;;7.75;4.03;;;25.70;99.90;;;;;;5051709;28;20025;-43
2024/03/20 03:06:24;;;;;;;6.50;4.00;;;25.70;99.90;;;;;;5052071;28;20033;-43
2024/03/20 03:08:50;;;;;;;7.25;3.72;;;25.70;99.90;;;;;;5051800;28;20025;-42
2024/03/20 03:11:15;;;;;;;5.80;4.07;;;25.70;99.90;;;;;;5051810;28;20108;-42
2024/03/20 03:13:42;;;;;;;5.40;4.00;;;25.70;99.90;;;;;;5033347;28;20041;-43
2024/03/20 03:16:14;;;;;;;6.07;4.27;;;25.70;99.90;;;;;;5050134;28;20024;-44
2024/03/20 03:18:40;;;;;;;7.10;4.20;;;25.70;99.90;;;;;;5049091;28;20163;-46
2024/03/20 03:21:10;;;;;;;5.25;3.78;;;25.70;99.90;;;;;;5051242;28;20029;-43
2024/03/20 03:23:36;;;;;;;6.45;3.95;;;25.60;99.90;;;;;;5051246;28;20036;-43
2024/03/20 03:26:03;;;;;;;5.65;3.58;;;25.60;99.90;;;;;;5050467;28;20478;-42
2024/03/20 03:28:30;;;;;;;7.65;4.43;;;25.60;99.90;;;;;;5049921;28;20029;-43
2024/03/20 03:30:55;;;;;;;7.85;4.00;;;25.60;99.90;;;;;;5051076;28;20025;-43
2024/03/20 03:33:21;;;;;;;6.65;3.72;;;25.60;99.90;;;;;;5050139;28;20029;-42
2024/03/20 03:35:47;;;;;;;5.40;4.10;;;25.60;99.90;;;;;;5051211;28;20029;-43
2024/03/20 03:38:13;;;;;;;8.68;3.80;;;25.60;99.90;;;;;;5033083;28;20028;-43
2024/03/20 03:40:38;;;;;;;4.60;3.25;;;25.60;99.90;;;;;;5051714;28;20033;-44
2024/03/20 03:43:04;;;;;;;6.60;3.92;;;25.60;99.90;;;;;;5051912;28;20037;-43
2024/03/20 03:45:30;;;;;;;9.30;4.10;;;25.50;99.90;;;;;;5051699;28;20441;-43
2024/03/20 03:47:57;;;;;;;5.25;3.92;;;25.50;99.90;;;;;;5034103;28;20110;-43
2024/03/20 03:50:23;;;;;;;5.93;4.00;;;25.50;99.90;;;;;;5051785;28;20099;-43
2024/03/20 03:52:49;;;;;;;9.93;3.60;;;25.50;99.90;;;;;;5051633;28;20171;-44
2024/03/20 03:55:15;;;;;;;9.80;3.47;;;25.50;99.90;;;;;;5051540;28;20029;-43
2024/03/20 03:57:41;;;;;;;8.02;3.75;;;25.40;99.90;;;;;;5051754;28;20469;-42
2024/03/20 04:00:10;;;;;;;3.92;2.83;;;25.40;99.90;;;;;;5051762;28;20040;-44
2024/03/20 04:02:36;;;;;;;6.18;3.20;;;25.40;99.90;;;;;;5079181;23;20492;-51
2024/03/20 04:05:04;;;;;;;6.40;3.55;;;25.40;99.90;;;;;;5071624;28;20107;-50
2024/03/20 04:07:30;;;;;;;5.93;3.80;;;25.40;99.90;;;;;;5053388;28;20025;-51
2024/03/20 04:09:56;;;;;;;4.80;3.38;;;25.40;99.90;;;;;;5053487;28;20020;-52
2024/03/20 04:12:22;;;;;;;5.25;3.20;;;25.40;99.90;;;;;;5071439;28;20021;-52
2024/03/20 04:14:48;;;;;;;8.63;3.55;;;25.40;99.90;;;;;;5056824;28;20441;-52
2024/03/20 04:17:14;;;;;;;3.47;2.80;;;25.30;99.90;;;;;;5075048;28;20017;-54
2024/03/20 04:19:40;;;;;;;6.53;3.92;;;25.40;99.90;;;;;;5075114;28;20033;-54
2024/03/20 04:22:06;;;;;;;6.00;3.50;;;25.30;99.90;;;;;;5057287;28;20545;-53
2024/03/20 04:24:32;;;;;;;4.82;3.42;;;25.30;99.90;;;;;;5056925;28;20389;-54
2024/03/20 04:26:58;;;;;;;7.15;3.10;;;25.30;99.90;;;;;;5074743;28;20078;-54
2024/03/20 04:29:24;;;;;;;5.38;3.65;;;25.30;99.90;;;;;;5074791;28;20031;-54
2024/03/20 04:31:50;;;;;;;4.50;3.35;;;25.20;99.90;;;;;;5074832;28;20024;-51
2024/03/20 04:34:16;;;;;;;8.52;3.42;;;25.30;99.90;;;;;;5056795;28;20043;-51
2024/03/20 04:36:42;;;;;;;5.35;3.67;;;25.30;99.90;;;;;;5074630;28;20031;-54
2024/03/20 04:39:07;;;;;;;7.13;3.33;;;25.20;99.90;;;;;;5074828;28;20024;-54
2024/03/20 04:41:33;;;;;;;4.13;3.03;;;25.20;99.90;;;;;;5074534;28;20020;-53
2024/03/20 04:43:59;;;;;;;4.70;2.60;;;25.20;99.90;;;;;;5074490;28;20032;-53
2024/03/20 04:46:25;;;;;;;5.18;2.78;;;25.20;99.90;;;;;;5074533;28;20021;-54
2024/03/20 04:48:51;;;;;;;5.80;3.55;;;25.20;99.90;;;;;;5056413;28;20480;-53
2024/03/20 04:51:17;;;;;;;4.45;3.05;;;25.20;99.90;;;;;;5074431;28;20078;-52
2024/03/20 04:53:43;;;;;;;3.75;2.78;;;25.20;99.90;;;;;;5074101;28;20021;-51
2024/03/20 04:56:08;;;;;;;8.18;3.30;;;25.10;99.90;;;;;;5074391;28;20468;-51
2024/03/20 04:58:34;;;;;;;5.93;3.20;;;25.10;99.90;;;;;;5056240;28;20116;-53
2024/03/20 05:01:00;;;;;;;4.75;3.00;;;25.10;99.90;;;;;;5074602;28;20071;-53
2024/03/20 05:03:26;;;;;;;3.50;2.75;;;25.10;99.90;;;;;;5074118;28;20044;-52
2024/03/20 05:05:52;;;;;;;4.85;3.28;;;25.10;99.90;;;;;;5074009;28;20058;-53
2024/03/20 05:08:17;;;;;;;4.95;3.17;;;25.10;99.90;;;;;;5074137;28;20460;-53
2024/03/20 05:10:43;;;;;;;5.00;3.17;;;25.10;99.90;;;;;;5073937;28;20103;-53
2024/03/20 05:13:09;;;;;;;4.25;2.92;;;25.00;99.90;;;;;;5074091;28;20043;-53
2024/03/20 05:15:41;;;;;;;4.97;3.08;;;25.10;99.90;;;;;;5055932;28;20417;-52
2024/03/20 05:18:07;;;;;;;4.28;2.75;;;25.00;99.90;;;;;;5073694;28;20093;-53
2024/03/20 05:20:33;;;;;;;5.93;3.15;;;25.00;99.90;;;;;;5073882;28;20025;-53
2024/03/20 05:22:59;;;;;;;4.75;3.15;;;25.00;99.90;;;;;;5073564;28;20099;-52
2024/03/20 05:25:25;;;;;;;4.38;2.90;;;25.00;99.90;;;;;;5073496;28;20045;-53
2024/03/20 05:27:51;;;;;;;4.68;2.97;;;25.00;99.90;;;;;;5073660;28;20048;-53
2024/03/20 05:30:17;;;;;;;4.13;2.85;;;25.00;99.90;;;;;;5073520;28;20420;-53
2024/03/20 05:32:42;;;;;;;4.10;2.47;;;25.00;99.90;;;;;;5073713;28;20032;-53
2024/03/20 05:35:08;;;;;;;4.32;3.00;;;25.00;99.90;;;;;;5073721;28;20484;-53
2024/03/20 05:37:34;;;;;;;5.10;3.25;;;24.90;99.90;;;;;;5073313;28;20020;-53
2024/03/20 05:40:00;;;;;;;4.32;2.55;;;24.90;99.90;;;;;;5055267;28;20028;-52
2024/03/20 05:42:26;;;;;;;5.32;3.38;;;24.90;99.90;;;;;;5073293;28;20027;-53
2024/03/20 05:44:52;;;;;;;4.47;3.13;;;24.90;99.90;;;;;;5073209;28;20033;-52
2024/03/20 05:47:17;;;;;;;3.95;2.75;;;24.90;99.90;;;;;;5073215;28;20017;-53
2024/03/20 05:49:43;;;;;;;4.78;2.90;;;24.90;99.90;;;;;;5073215;28;20067;-53
2024/03/20 05:52:09;;;;;;;3.33;2.60;;;24.90;99.90;;;;;;5073257;28;20023;-52
2024/03/20 05:54:35;;;;;;;2.80;2.55;;;24.90;99.90;;;;;;5073033;28;20395;-52
2024/03/20 05:57:01;;;;;;;3.50;2.65;;;24.90;99.90;;;;;;5073038;28;20028;-52
2024/03/20 05:59:27;;;;;;;3.63;2.97;;;24.80;99.90;;;;;;5073087;28;20120;-52
2024/03/20 06:01:52;;;;;;;4.18;2.78;;;24.90;99.90;;;;;;5060313;28;20414;-53
2024/03/20 06:04:18;;;;;;;5.68;2.75;;;24.80;99.90;;;;;;5052275;28;20383;-53
2024/03/20 06:06:45;;;;;;;3.17;2.50;;;24.80;99.90;;;;;;5051790;28;20032;-53
2024/03/20 06:09:13;;;;;;;4.68;2.92;;;24.80;99.90;;;;;;5033457;28;20060;-52
2024/03/20 06:11:39;;;;;;;;;;;24.80;99.90;;;;;;5035067;28;20025;-53
2024/03/20 06:14:05;;;;;;;6.00;2.60;;;24.80;99.90;;;;;;5052687;28;20426;-53
2024/03/20 06:16:31;;;;;;;4.78;3.03;;;24.80;99.90;;;;;;5052579;28;20025;-53
2024/03/20 06:18:57;;;;;;;5.00;3.10;;;24.80;99.90;;;;;;5052722;28;20063;-53
2024/03/20 06:21:23;;;;;;;4.50;2.72;;;24.80;99.90;;;;;;5034875;28;20018;-53
2024/03/20 06:23:49;;;;;;;3.17;2.80;;;24.70;99.90;;;;;;5052360;28;20025;-53
2024/03/20 06:26:15;;;;;;;4.85;3.13;;;24.80;99.90;;;;;;5034641;28;20028;-53
2024/03/20 06:28:41;;;;;;;3.47;2.70;;;24.70;99.90;;;;;;5052433;28;20024;-53
2024/03/20 06:31:07;;;;;;;4.35;2.75;;;24.70;99.90;;;;;;5052430;28;20101;-53
2024/03/20 06:33:34;;;;;;;5.57;2.72;;;24.70;99.90;;;;;;5034527;28;20029;-53
2024/03/20 06:36:00;;;;;;;5.10;2.65;;;24.70;99.90;;;;;;5051859;28;20056;-53
2024/03/20 06:38:25;;;;;;;4.53;2.80;;;24.70;99.90;;;;;;5052269;28;20017;-53
2024/03/20 06:40:51;;;;;;;4.47;3.13;;;24.70;99.90;;;;;;5052294;28;20527;-53
2024/03/20 06:43:17;;;;;;;4.18;2.65;;;24.70;99.90;;;;;;5052324;28;20124;-53
2024/03/20 06:45:49;;;;;;;3.75;2.58;;;24.70;99.90;;;;;;5052400;28;20025;-53
2024/03/20 06:48:17;;;;;;;5.82;2.45;;;24.70;99.90;;;;;;5035446;28;20453;-53
2024/03/20 06:50:48;;;;;;;6.40;2.60;;;24.70;99.90;;;;;;5052215;28;20031;-53
2024/03/20 06:53:14;;;;;;;5.70;2.55;;;24.70;99.90;;;;;;5034282;28;20029;-53
2024/03/20 06:55:43;;;;;;;2.60;2.13;;;24.70;99.90;;;;;;5034143;28;20025;-53
2024/03/20 06:58:11;;;;;;;4.95;2.65;;;24.70;99.90;;;;;;5034580;28;20028;-53
2024/03/20 07:00:37;;;;;;;3.90;2.60;;;24.70;99.90;;;;;;5051737;28;20036;-53
2024/03/20 07:03:03;;;;;;;3.28;2.40;;;24.60;99.90;;;;;;5034218;28;20436;-54
2024/03/20 07:05:30;;;;;;;5.25;2.92;;;24.70;99.90;;;;;;5051810;28;20035;-53
2024/03/20 07:07:56;;;;;;;5.35;2.45;;;24.60;99.90;;;;;;5034149;28;20121;-53
2024/03/20 07:10:22;;;;;;;4.63;2.35;;;24.60;99.90;;;;;;5051834;28;20448;-53
2024/03/20 07:12:48;;;;;;;3.08;2.47;;;24.60;99.90;;;;;;5052063;28;20037;-53
2024/03/20 07:15:14;;;;;;;4.32;2.58;;;24.70;99.90;;;;;;5052247;28;20031;-54
2024/03/20 07:17:40;;;;;;;6.15;2.45;;;24.60;99.90;;;;;;5051889;28;20372;-53
2024/03/20 07:20:09;;;;;;;4.22;3.03;;;24.60;99.90;;;;;;5051826;28;20029;-52
2024/03/20 07:22:37;;;;;;;4.95;2.40;;;24.60;99.90;;;;;;5051652;28;20025;-52
2024/03/20 07:25:07;;;;;;;4.75;2.65;;;24.60;99.90;;;;;;5051918;28;20112;-52
2024/03/20 07:27:33;;;;;;;3.72;2.70;;;24.60;99.90;;;;;;5051812;28;20024;-52
2024/03/20 07:30:00;;;;;;;4.00;2.85;;;24.60;99.90;;;;;;5051742;28;20025;-53
2024/03/20 07:32:27;;;;;;;6.53;3.25;;;24.60;99.90;;;;;;5033784;28;20029;-53
2024/03/20 07:34:53;;;;;;;4.23;2.50;;;24.60;99.90;;;;;;5051787;28;20048;-53
2024/03/20 07:37:19;;;;;;;6.85;2.72;;;24.60;99.90;;;;;;5051912;28;20017;-52
2024/03/20 07:39:44;;;;;;;6.88;2.88;;;24.60;99.90;;;;;;5051710;28;20025;-53
2024/03/20 07:42:10;;;;;;;6.45;2.78;;;24.60;99.90;;;;;;5033708;28;20156;-53
2024/03/20 07:44:36;;;;;;;4.20;2.80;;;24.60;99.90;;;;;;5033978;28;20182;-53
2024/03/20 07:47:03;;;;;;;5.88;2.30;;;24.60;99.90;;;;;;5033763;28;20025;-52
2024/03/20 07:49:29;;;;;;;4.13;2.63;;;24.60;99.90;;;;;;5037111;28;20028;-53
2024/03/20 07:51:56;;;;;;;4.13;3.00;;;24.60;99.90;;;;;;5055390;28;20079;-53
2024/03/20 07:54:25;;;;;;;3.92;2.33;;;24.60;99.90;;;;;;5055209;28;20496;-53
2024/03/20 07:56:52;;;;;;;3.30;2.50;;;24.60;99.90;;;;;;5037454;28;20036;-53
2024/03/20 07:59:18;;;;;;;4.80;2.53;;;24.60;99.90;;;;;;5037701;28;20052;-53
2024/03/20 08:01:44;;;;;;;3.70;2.42;;;24.60;99.90;;;;;;5037178;28;20055;-52
2024/03/20 08:04:10;;;;;;;3.65;2.55;;;24.60;99.90;;;;;;5055221;28;20044;-52
2024/03/20 08:06:36;;;;;;;5.78;2.58;;;24.60;99.90;;;;;;5055168;28;20083;-53
2024/03/20 08:09:04;;;;;;;3.47;2.38;;;24.60;99.90;;;;;;5055081;28;20051;-52
2024/03/20 08:11:30;;;;;;;4.00;2.67;;;24.60;99.90;;;;;;5055104;28;20075;-53
2024/03/20 08:13:56;;;;;;;5.03;2.80;;;24.60;99.90;;;;;;5055019;28;20035;-53
2024/03/20 08:16:22;;;;;;;5.22;2.58;;;24.60;99.90;;;;;;5054859;28;20044;-53
2024/03/20 08:18:48;;;;;;;3.63;2.50;;;24.60;99.90;;;;;;5055144;28;20082;-52
2024/03/20 08:21:15;;;;;;;6.43;2.88;;;24.60;99.90;;;;;;5055045;28;20104;-53
2024/03/20 08:23:41;;;;;;;4.40;2.30;;;24.60;99.90;;;;;;5054922;28;20021;-53
2024/03/20 08:26:08;;;;;;;6.65;2.50;;;24.60;99.90;;;;;;5054997;28;20040;-53
2024/03/20 08:28:34;;;;;;;3.97;2.22;;;24.60;99.90;;;;;;5054824;28;20029;-53
2024/03/20 08:30:59;;;;;;;5.32;2.60;;;24.60;99.90;;;;;;5054645;28;20096;-52
2024/03/20 08:33:25;;;;;;;4.40;2.35;;;24.70;99.90;;;;;;5054808;28;20132;-53
2024/03/20 08:35:55;;;;;;;3.25;2.50;;;24.60;99.90;;;;;;5054937;28;20032;-52
2024/03/20 08:38:22;;;;;;;4.18;2.20;;;24.60;99.90;;;;;;5036971;28;20083;-53
2024/03/20 08:40:48;;;;;;;4.00;2.20;;;24.60;99.90;;;;;;5054909;28;20389;-53
2024/03/20 08:43:14;;;;;;;5.43;2.70;;;24.60;99.90;;;;;;5054636;28;20033;-53
2024/03/20 08:45:41;;;;;;;5.78;2.83;;;24.60;99.90;;;;;;5054502;28;20666;-52
2024/03/20 08:48:07;;;;;;;3.50;2.47;;;24.60;99.90;;;;;;5036392;28;20028;-52
2024/03/20 08:50:34;;;;;;;5.05;2.40;;;24.70;99.90;;;;;;5054423;28;20477;-52
2024/03/20 08:53:02;;;;;;;4.40;2.65;;;24.70;99.90;;;;;;5054376;28;20063;-52
2024/03/20 08:55:27;;;;;;;3.92;2.78;;;24.70;99.90;;;;;;5036873;28;20033;-53
2024/03/20 08:57:54;;;;;;;7.88;3.40;;;24.70;99.90;;;;;;5036490;28;20027;-52
2024/03/20 09:00:19;;;;;;;10.15;3.72;;;24.70;99.90;;;;;;5053943;28;20032;-53
2024/03/20 09:02:45;;;;;;;5.07;3.50;;;24.70;99.90;;;;;;5053921;28;20041;-52
2024/03/20 09:05:13;;;;;;;5.82;3.67;;;24.70;99.90;;;;;;5054183;28;20525;-52
2024/03/20 09:07:40;;;;;;;8.40;3.15;;;24.70;99.90;;;;;;5019881;28;20477;-52
2024/03/20 09:10:06;;;;;;;7.70;3.40;;;24.70;99.90;;;;;;5036418;28;20150;-52
2024/03/20 09:12:32;;;;;;;7.85;4.05;;;24.70;99.90;;;;;;5053785;28;20021;-52
2024/03/20 09:14:58;;;;;;;5.47;3.42;;;24.70;99.90;;;;;;5053710;28;20040;-52
2024/03/20 09:17:23;;;;;;;6.72;3.30;;;24.70;99.90;;;;;;5053986;28;20017;-52
2024/03/20 09:19:49;;;;;;;5.85;3.05;;;24.70;99.90;;;;;;5035972;28;20503;-52
2024/03/20 09:22:15;;;;;;;7.10;3.75;;;24.70;99.90;;;;;;5053552;28;20029;-52
2024/03/20 09:24:41;;;;;;;7.28;3.88;;;24.70;99.90;;;;;;5053555;28;20071;-52
2024/03/20 09:27:06;;;;;;;4.80;2.97;;;24.70;99.90;;;;;;5035585;28;20039;-52
2024/03/20 09:29:32;;;;;;;5.25;3.40;;;24.70;99.90;;;;;;5053563;28;20025;-52
2024/03/20 09:31:58;;;;;;;5.63;3.08;;;24.70;99.90;;;;;;5053509;28;20036;-52
2024/03/20 09:34:24;;;;;;;8.10;4.13;;;24.70;99.90;;;;;;5053692;28;20388;-52
2024/03/20 09:36:50;;;;;;;6.45;3.50;;;24.70;99.90;;;;;;5053357;28;20017;-52
2024/03/20 09:39:16;;;;;;;9.07;3.33;;;24.70;99.90;;;;;;5053144;28;20448;-52
2024/03/20 09:41:41;;;;;;;5.85;3.50;;;24.70;99.90;;;;;;5035290;28;20021;-52
2024/03/20 09:44:12;;;;;;;5.03;3.13;;;24.70;99.90;;;;;;5053256;28;20020;-52
2024/03/20 09:46:38;;;;;;;9.02;3.70;;;24.80;99.90;;;;;;5053315;28;20017;-52
2024/03/20 09:49:04;;;;;;;7.80;3.60;;;24.80;99.90;;;;;;5053224;28;20021;-52
2024/03/20 09:51:30;;;;;;;7.90;3.40;;;24.80;99.90;;;;;;5053085;28;20051;-52
2024/03/20 09:53:58;;;;;;;6.18;4.00;;;24.80;99.90;;;;;;5053377;28;20033;-51
2024/03/20 09:56:25;;;;;;;5.32;3.80;;;24.80;99.90;;;;;;5035824;28;20074;-51
2024/03/20 09:58:52;;;;;;;;;;;24.80;99.90;;;;;;5035551;28;20029;-52
2024/03/20 10:01:22;;;;;;;5.50;3.50;;;24.80;99.90;;;;;;5053036;28;19917;-52
2024/03/20 10:03:55;;;;;;;5.35;3.70;;;24.90;99.90;;;;;;5052973;28;20116;-51
2024/03/20 10:06:25;;;;;;;6.78;3.63;;;24.80;99.90;;;;;;5052904;28;20079;-52
2024/03/20 10:08:52;;;;;;;6.38;3.85;;;24.80;99.90;;;;;;5052800;28;20021;-52
2024/03/20 10:11:18;;;;;;;13.52;4.35;;;24.90;99.90;;;;;;5052081;28;20029;-51
2024/03/20 10:13:45;;;;;;;6.70;3.72;;;24.90;99.90;;;;;;5052663;28;20041;-51
2024/03/20 10:16:14;;;;;;;;;;;24.90;99.90;;;;;;5053028;28;20163;-52
2024/03/20 10:18:44;;;;;;;7.18;3.97;;;24.90;99.90;;;;;;5052554;28;20028;-52
2024/03/20 10:21:11;;;;;;;6.35;3.97;;;25.00;99.90;;;;;;5034488;28;20460;-52
2024/03/20 10:23:39;;;;;;;6.43;3.53;;;24.90;99.90;;;;;;5018168;28;20029;-52
2024/03/20 10:26:06;;;;;;;9.35;3.88;;;25.00;99.90;;;;;;5052582;28;20818;-52
2024/03/20 10:28:32;;;;;;;7.65;3.75;;;25.00;99.90;;;;;;5052366;28;20013;-52
2024/03/20 10:31:03;;;;;;;7.00;4.03;;;25.00;99.90;;;;;;5053705;28;20057;-52
2024/03/20 10:33:29;;;;;;;5.72;3.53;;;25.00;99.90;;;;;;5060569;28;20048;-52
2024/03/20 10:35:56;;;;;;;5.07;3.58;;;25.00;99.90;;;;;;5044710;28;20071;-51
2024/03/20 10:38:25;;;;;;;7.18;4.00;;;25.00;99.90;;;;;;5062108;28;20043;-52
2024/03/20 10:40:52;;;;;;;7.18;4.07;;;25.00;99.90;;;;;;5066339;28;20025;-52
2024/03/20 10:43:20;;;;;;;4.65;3.40;;;25.00;99.90;;;;;;5053422;28;20506;-53
2024/03/20 10:45:50;;;;;;;4.65;3.08;;;25.00;99.90;;;;;;5069207;28;20388;-52
2024/03/20 10:48:18;;;;;;;7.22;3.38;;;25.00;99.90;;;;;;5069834;28;20028;-52
2024/03/20 10:50:47;;;;;;;9.40;4.18;;;25.00;99.90;;;;;;5029700;28;20029;-52
2024/03/20 10:53:15;;;;;;;5.55;3.28;;;25.00;99.90;;;;;;5052452;28;20036;-52
2024/03/20 10:55:45;;;;;;;9.90;3.50;;;25.00;99.90;;;;;;5071586;28;20013;-51
2024/03/20 10:58:15;;;;;;;6.95;3.47;;;25.00;99.90;;;;;;5071444;28;20085;-51
2024/03/20 11:00:45;;;;;;;7.00;3.40;;;25.10;99.90;;;;;;5068546;28;20107;-51
2024/03/20 11:03:43;;;;;;;5.28;3.47;;;25.10;99.90;;;;;;5071464;28;20021;-51
2024/03/20 11:06:39;;;;;;;6.93;3.50;;;25.00;99.90;;;;;;5071890;28;20021;-52
2024/03/20 11:09:07;;;;;;;12.23;3.92;;;25.00;99.90;;;;;;5072318;28;20179;-52
2024/03/20 11:11:34;;;;;;;8.02;3.45;;;25.10;99.90;;;;;;5071813;28;20025;-54
2024/03/20 11:14:04;;;;;;;13.38;3.65;;;25.10;99.90;;;;;;5072101;28;20530;-53
2024/03/20 11:16:33;;;;;;;7.40;3.53;;;25.10;99.90;;;;;;5072105;28;20078;-54
2024/03/20 11:19:05;;;;;;;8.10;3.28;;;25.10;99.90;;;;;;5054783;28;20116;-55
2024/03/20 11:21:31;;;;;;;6.43;2.90;;;25.00;99.90;;;;;;5071566;28;20074;-55
2024/03/20 11:23:57;;;;;;;8.32;2.60;;;25.10;99.90;;;;;;5057510;28;20055;-55
2024/03/20 11:26:25;;;;;;;7.78;3.20;;;25.10;99.90;;;;;;5075571;28;20524;-56
2024/03/20 11:28:51;;;;;;;;;;;25.10;99.90;;;;;;5075981;28;20115;-54
2024/03/20 11:31:17;;;;;;;8.20;2.97;;;25.10;99.90;;;;;;5075069;28;19912;-54
2024/03/20 11:33:44;;;;;;;14.85;3.80;;;25.10;99.90;;;;;;5075224;28;20021;-54
2024/03/20 11:36:14;;;;;;;7.03;3.05;;;25.10;99.90;;;;;;5075168;28;20019;-56
2024/03/20 11:38:40;;;;;;;10.00;4.18;;;25.10;99.90;;;;;;5072530;28;20012;-56
2024/03/20 11:41:09;;;;;;;7.90;3.40;;;25.00;99.90;;;;;;5074841;28;20024;-53
2024/03/20 11:43:35;;;;;;;7.47;2.85;;;25.00;99.90;;;;;;5073281;28;20043;-53
2024/03/20 11:46:01;;;;;;;6.05;3.38;;;25.00;99.90;;;;;;5055552;28;20021;-54
2024/03/20 11:48:31;;;;;;;8.95;3.42;;;25.10;99.90;;;;;;5073611;28;20040;-53
2024/03/20 11:50:57;;;;;;;7.38;2.92;;;25.10;99.90;;;;;;5073585;28;20029;-54
2024/03/20 11:53:23;;;;;;;6.88;3.80;;;25.10;99.90;;;;;;5073687;28;20114;-54
2024/03/20 11:55:50;;;;;;;9.35;3.83;;;25.10;99.90;;;;;;5073613;28;20021;-55
2024/03/20 11:58:18;;;;;;;9.70;3.83;;;25.00;99.90;;;;;;5055471;28;20025;-54
2024/03/20 12:00:43;;;;;;;8.52;3.65;;;25.00;99.90;;;;;;5074491;28;20052;-55
2024/03/20 12:03:27;;;;;;;8.57;3.70;;;25.00;99.90;;;;;;5075555;28;20056;-53
2024/03/20 12:06:09;;;;;;;5.80;3.72;;;25.10;99.90;;;;;;5075205;28;20024;-54
2024/03/20 12:08:36;;;;;;;6.13;3.30;;;25.00;99.90;;;;;;5075119;28;20044;-54
2024/03/20 12:11:14;;;;;;;9.65;3.88;;;25.00;99.90;;;;;;5075280;28;20036;-54
2024/03/20 12:13:41;;;;;;;8.25;4.03;;;25.00;99.90;;;;;;5074881;28;20032;-54
2024/03/20 12:16:07;;;;;;;7.05;3.58;;;25.00;99.90;;;;;;5056934;28;20025;-54
2024/03/20 12:18:35;;;;;;;4.85;3.55;;;25.00;99.90;;;;;;5075155;28;20035;-54
2024/03/20 12:21:03;;;;;;;5.68;3.03;;;25.00;99.90;;;;;;5057186;28;20075;-54
2024/03/20 12:23:33;;;;;;;6.97;4.20;;;25.00;99.90;;;;;;5075058;28;20512;-54
2024/03/20 12:25:59;;;;;;;6.63;3.20;;;25.00;99.90;;;;;;5074984;28;20048;-56
2024/03/20 12:28:26;;;;;;;6.47;3.08;;;25.00;99.90;;;;;;5056825;28;20112;-54
2024/03/20 12:30:52;;;;;;;4.90;3.28;;;25.00;99.90;;;;;;5074825;28;20052;-54
2024/03/20 12:33:20;;;;;;;9.55;3.58;;;25.00;99.90;;;;;;5056435;28;20396;-54
2024/03/20 12:35:47;;;;;;;8.32;3.33;;;25.00;99.90;;;;;;5074396;28;20028;-54
2024/03/20 12:38:13;;;;;;;7.00;3.33;;;25.00;99.90;;;;;;5074733;28;20029;-54
2024/03/20 12:40:42;;;;;;;9.75;3.47;;;25.00;99.90;;;;;;5074640;28;20048;-54
2024/03/20 12:43:08;;;;;;;7.55;3.10;;;25.00;99.90;;;;;;5074563;28;20701;-54
2024/03/20 12:45:34;;;;;;;8.23;3.33;;;25.00;99.90;;;;;;5074829;28;20059;-54
2024/03/20 12:47:59;;;;;;;7.82;4.20;;;25.00;99.90;;;;;;5056512;28;20048;-53